Alamo, Nevada
Current Conditions -  °F | °C
As of 4:58 PM on Saturday 25 Oct 2014 (Local Time) from KINS Reporting Station
Clear Clear  
Wind Chill: 26°   Ceiling: Unl
Heat Index: 26°   Visibility: 10mi
Dew Point:   Wind: 28mph
Humidity: 20%   Direction: 230°SW
Pressure: 29.95"   Gusts: 37mph
Location:  37.36°N, 115.16°W
Report Text: KINS 252358Z AUTO 23024G32KT 10SM CLR 26/02 A2995 RMK AO2 SLP108 T02610017 10280 20222 57014 $
Loading
Personal Weather Stations






























Interactive Weather Map
Tropical Storm Tracking
New forecast layout! Learn more

10-Day Weather Forecast

Advertisements
Track Severe Weather on mobile